sensor_id;sensor_type;location;lat;lon;timestamp;temperature;humidity
12704;DHT22;6416;52.182;7.650;2023-11-21T00:00:10;9.30;94.90
12704;DHT22;6416;52.182;7.650;2023-11-21T00:02:36;9.30;94.80
12704;DHT22;6416;52.182;7.650;2023-11-21T00:05:01;9.40;94.90
12704;DHT22;6416;52.182;7.650;2023-11-21T00:07:27;9.40;95.00
12704;DHT22;6416;52.182;7.650;2023-11-21T00:09:52;9.40;95.00
12704;DHT22;6416;52.182;7.650;2023-11-21T00:12:18;9.50;95.10
12704;DHT22;6416;52.182;7.650;2023-11-21T00:14:43;9.50;95.10
12704;DHT22;6416;52.182;7.650;2023-11-21T00:17:09;9.50;95.10
12704;DHT22;6416;52.182;7.650;2023-11-21T00:19:34;9.60;95.20
12704;DHT22;6416;52.182;7.650;2023-11-21T00:22:00;9.60;95.30
12704;DHT22;6416;52.182;7.650;2023-11-21T00:24:25;9.70;95.40
12704;DHT22;6416;52.182;7.650;2023-11-21T00:26:51;9.70;95.40
12704;DHT22;6416;52.182;7.650;2023-11-21T00:29:16;9.70;95.50
12704;DHT22;6416;52.182;7.650;2023-11-21T00:31:42;9.70;95.50
12704;DHT22;6416;52.182;7.650;2023-11-21T00:34:08;9.80;95.60
12704;DHT22;6416;52.182;7.650;2023-11-21T00:36:33;9.80;95.50
12704;DHT22;6416;52.182;7.650;2023-11-21T00:38:58;9.80;95.50
12704;DHT22;6416;52.182;7.650;2023-11-21T00:41:24;9.80;95.50
12704;DHT22;6416;52.182;7.650;2023-11-21T00:43:50;9.80;95.50
12704;DHT22;6416;52.182;7.650;2023-11-21T00:46:15;9.90;95.60
12704;DHT22;6416;52.182;7.650;2023-11-21T00:48:41;9.90;95.60
12704;DHT22;6416;52.182;7.650;2023-11-21T00:51:09;9.90;95.60
12704;DHT22;6416;52.182;7.650;2023-11-21T00:53:35;9.90;95.60
12704;DHT22;6416;52.182;7.650;2023-11-21T00:56:00;9.90;95.70
12704;DHT22;6416;52.182;7.650;2023-11-21T00:58:26;10.00;95.40
12704;DHT22;6416;52.182;7.650;2023-11-21T01:00:52;10.00;95.50
12704;DHT22;6416;52.182;7.650;2023-11-21T01:03:17;10.00;95.40
12704;DHT22;6416;52.182;7.650;2023-11-21T01:05:43;10.00;95.50
12704;DHT22;6416;52.182;7.650;2023-11-21T01:08:08;10.00;95.60
12704;DHT22;6416;52.182;7.650;2023-11-21T01:10:34;10.10;95.60
12704;DHT22;6416;52.182;7.650;2023-11-21T01:12:59;10.10;95.70
12704;DHT22;6416;52.182;7.650;2023-11-21T01:15:25;10.10;95.70
12704;DHT22;6416;52.182;7.650;2023-11-21T01:17:50;10.20;95.80
12704;DHT22;6416;52.182;7.650;2023-11-21T01:20:16;10.20;95.90
12704;DHT22;6416;52.182;7.650;2023-11-21T01:22:41;10.20;95.90
12704;DHT22;6416;52.182;7.650;2023-11-21T01:25:07;10.20;95.90
12704;DHT22;6416;52.182;7.650;2023-11-21T01:27:33;10.30;96.00
12704;DHT22;6416;52.182;7.650;2023-11-21T01:29:58;10.30;96.00
12704;DHT22;6416;52.182;7.650;2023-11-21T01:32:24;10.30;96.10
12704;DHT22;6416;52.182;7.650;2023-11-21T01:34:50;10.30;96.10
12704;DHT22;6416;52.182;7.650;2023-11-21T01:37:16;10.40;96.10
12704;DHT22;6416;52.182;7.650;2023-11-21T01:39:41;10.40;96.20
12704;DHT22;6416;52.182;7.650;2023-11-21T01:42:07;10.40;96.20
12704;DHT22;6416;52.182;7.650;2023-11-21T01:44:32;10.40;96.20
12704;DHT22;6416;52.182;7.650;2023-11-21T01:46:58;10.50;96.20
12704;DHT22;6416;52.182;7.650;2023-11-21T01:49:23;10.50;96.20
12704;DHT22;6416;52.182;7.650;2023-11-21T01:51:49;10.50;96.20
12704;DHT22;6416;52.182;7.650;2023-11-21T01:54:17;10.50;96.20
12704;DHT22;6416;52.182;7.650;2023-11-21T01:56:46;10.50;96.20
12704;DHT22;6416;52.182;7.650;2023-11-21T01:59:15;10.50;96.10
12704;DHT22;6416;52.182;7.650;2023-11-21T02:01:43;10.60;96.20
12704;DHT22;6416;52.182;7.650;2023-11-21T02:04:08;10.60;96.50
12704;DHT22;6416;52.182;7.650;2023-11-21T02:06:34;10.60;96.30
12704;DHT22;6416;52.182;7.650;2023-11-21T02:08:59;10.60;96.30
12704;DHT22;6416;52.182;7.650;2023-11-21T02:11:25;10.60;96.30
12704;DHT22;6416;52.182;7.650;2023-11-21T02:13:50;10.70;96.40
12704;DHT22;6416;52.182;7.650;2023-11-21T02:16:15;10.70;96.40
12704;DHT22;6416;52.182;7.650;2023-11-21T02:18:41;10.70;96.40
12704;DHT22;6416;52.182;7.650;2023-11-21T02:21:06;10.70;96.40
12704;DHT22;6416;52.182;7.650;2023-11-21T02:23:32;10.70;96.40
12704;DHT22;6416;52.182;7.650;2023-11-21T02:25:58;10.70;96.40
12704;DHT22;6416;52.182;7.650;2023-11-21T02:28:23;10.70;96.40
12704;DHT22;6416;52.182;7.650;2023-11-21T02:30:49;10.70;96.30
12704;DHT22;6416;52.182;7.650;2023-11-21T02:33:14;10.80;96.40
12704;DHT22;6416;52.182;7.650;2023-11-21T02:35:39;10.80;96.40
12704;DHT22;6416;52.182;7.650;2023-11-21T02:38:05;10.80;96.40
12704;DHT22;6416;52.182;7.650;2023-11-21T02:40:30;10.80;96.40
12704;DHT22;6416;52.182;7.650;2023-11-21T02:42:56;10.80;96.50
12704;DHT22;6416;52.182;7.650;2023-11-21T02:45:22;10.80;96.60
12704;DHT22;6416;52.182;7.650;2023-11-21T02:47:48;10.80;96.60
12704;DHT22;6416;52.182;7.650;2023-11-21T02:50:13;10.90;96.70
12704;DHT22;6416;52.182;7.650;2023-11-21T02:52:42;10.80;96.70
12704;DHT22;6416;52.182;7.650;2023-11-21T02:55:07;10.90;96.70
12704;DHT22;6416;52.182;7.650;2023-11-21T02:57:33;10.90;96.80
12704;DHT22;6416;52.182;7.650;2023-11-21T02:59:59;10.90;96.80
12704;DHT22;6416;52.182;7.650;2023-11-21T03:02:25;10.90;96.80
12704;DHT22;6416;52.182;7.650;2023-11-21T03:04:50;10.90;96.80
12704;DHT22;6416;52.182;7.650;2023-11-21T03:07:16;10.90;96.80
12704;DHT22;6416;52.182;7.650;2023-11-21T03:09:42;10.90;96.80
12704;DHT22;6416;52.182;7.650;2023-11-21T03:12:08;11.00;96.80
12704;DHT22;6416;52.182;7.650;2023-11-21T03:14:33;11.00;96.80
12704;DHT22;6416;52.182;7.650;2023-11-21T03:16:59;11.00;96.80
12704;DHT22;6416;52.182;7.650;2023-11-21T03:19:24;11.00;96.80
12704;DHT22;6416;52.182;7.650;2023-11-21T03:21:50;11.00;96.80
12704;DHT22;6416;52.182;7.650;2023-11-21T03:24:15;11.00;96.80
12704;DHT22;6416;52.182;7.650;2023-11-21T03:26:41;11.10;96.90
12704;DHT22;6416;52.182;7.650;2023-11-21T03:29:06;11.10;96.90
12704;DHT22;6416;52.182;7.650;2023-11-21T03:31:32;11.10;97.00
12704;DHT22;6416;52.182;7.650;2023-11-21T03:33:57;11.10;97.00
12704;DHT22;6416;52.182;7.650;2023-11-21T03:36:22;11.10;97.00
12704;DHT22;6416;52.182;7.650;2023-11-21T03:38:48;11.10;97.00
12704;DHT22;6416;52.182;7.650;2023-11-21T03:41:13;11.10;97.10
12704;DHT22;6416;52.182;7.650;2023-11-21T03:43:39;11.20;97.10
12704;DHT22;6416;52.182;7.650;2023-11-21T03:46:05;11.20;97.10
12704;DHT22;6416;52.182;7.650;2023-11-21T03:48:30;11.20;97.10
12704;DHT22;6416;52.182;7.650;2023-11-21T03:50:56;11.20;97.10
12704;DHT22;6416;52.182;7.650;2023-11-21T03:53:21;11.20;97.10
12704;DHT22;6416;52.182;7.650;2023-11-21T03:55:47;11.20;97.10
12704;DHT22;6416;52.182;7.650;2023-11-21T03:58:12;11.20;97.10
12704;DHT22;6416;52.182;7.650;2023-11-21T04:00:38;11.20;97.20
12704;DHT22;6416;52.182;7.650;2023-11-21T04:03:03;11.30;97.20
12704;DHT22;6416;52.182;7.650;2023-11-21T04:05:29;11.30;97.20
12704;DHT22;6416;52.182;7.650;2023-11-21T04:07:54;11.30;97.20
12704;DHT22;6416;52.182;7.650;2023-11-21T04:10:19;11.30;97.50
12704;DHT22;6416;52.182;7.650;2023-11-21T04:12:45;11.30;97.20
12704;DHT22;6416;52.182;7.650;2023-11-21T04:15:11;11.30;97.20
12704;DHT22;6416;52.182;7.650;2023-11-21T04:17:36;11.30;97.20
12704;DHT22;6416;52.182;7.650;2023-11-21T04:20:04;11.30;97.10
12704;DHT22;6416;52.182;7.650;2023-11-21T04:22:29;11.30;97.00
12704;DHT22;6416;52.182;7.650;2023-11-21T04:24:55;11.40;97.10
12704;DHT22;6416;52.182;7.650;2023-11-21T04:27:20;11.40;97.10
12704;DHT22;6416;52.182;7.650;2023-11-21T04:29:46;11.40;97.10
12704;DHT22;6416;52.182;7.650;2023-11-21T04:32:11;11.40;97.10
12704;DHT22;6416;52.182;7.650;2023-11-21T04:34:36;11.40;97.10
12704;DHT22;6416;52.182;7.650;2023-11-21T04:37:02;11.40;97.20
12704;DHT22;6416;52.182;7.650;2023-11-21T04:39:28;11.40;97.20
12704;DHT22;6416;52.182;7.650;2023-11-21T04:41:53;11.40;97.20
12704;DHT22;6416;52.182;7.650;2023-11-21T04:44:18;11.40;97.20
12704;DHT22;6416;52.182;7.650;2023-11-21T04:46:44;11.40;97.20
12704;DHT22;6416;52.182;7.650;2023-11-21T04:49:09;11.40;97.20
12704;DHT22;6416;52.182;7.650;2023-11-21T04:51:35;11.40;97.20
12704;DHT22;6416;52.182;7.650;2023-11-21T04:54:00;11.40;97.20
12704;DHT22;6416;52.182;7.650;2023-11-21T04:56:26;11.40;97.20
12704;DHT22;6416;52.182;7.650;2023-11-21T04:58:52;11.40;97.50
12704;DHT22;6416;52.182;7.650;2023-11-21T05:01:18;11.40;97.20
12704;DHT22;6416;52.182;7.650;2023-11-21T05:03:43;11.40;97.10
12704;DHT22;6416;52.182;7.650;2023-11-21T05:06:12;11.40;97.10
12704;DHT22;6416;52.182;7.650;2023-11-21T05:08:37;11.40;97.10
12704;DHT22;6416;52.182;7.650;2023-11-21T05:11:03;11.40;97.20
12704;DHT22;6416;52.182;7.650;2023-11-21T05:13:28;11.40;97.20
12704;DHT22;6416;52.182;7.650;2023-11-21T05:15:57;11.40;97.20
12704;DHT22;6416;52.182;7.650;2023-11-21T05:18:22;11.50;97.20
12704;DHT22;6416;52.182;7.650;2023-11-21T05:20:48;11.50;97.30
12704;DHT22;6416;52.182;7.650;2023-11-21T05:23:13;11.50;97.30
12704;DHT22;6416;52.182;7.650;2023-11-21T05:25:39;11.50;97.40
12704;DHT22;6416;52.182;7.650;2023-11-21T05:28:04;11.50;97.40
12704;DHT22;6416;52.182;7.650;2023-11-21T05:30:30;11.50;97.40
12704;DHT22;6416;52.182;7.650;2023-11-21T05:32:55;11.50;97.50
12704;DHT22;6416;52.182;7.650;2023-11-21T05:35:21;11.50;97.50
12704;DHT22;6416;52.182;7.650;2023-11-21T05:37:46;11.50;97.50
12704;DHT22;6416;52.182;7.650;2023-11-21T05:40:12;11.50;97.50
12704;DHT22;6416;52.182;7.650;2023-11-21T05:42:38;11.60;97.60
12704;DHT22;6416;52.182;7.650;2023-11-21T05:45:04;11.60;97.60
12704;DHT22;6416;52.182;7.650;2023-11-21T05:47:29;11.60;97.50
12704;DHT22;6416;52.182;7.650;2023-11-21T05:49:55;11.60;97.50
12704;DHT22;6416;52.182;7.650;2023-11-21T05:52:20;11.60;97.40
12704;DHT22;6416;52.182;7.650;2023-11-21T05:54:46;11.60;97.50
12704;DHT22;6416;52.182;7.650;2023-11-21T05:57:11;11.60;97.40
12704;DHT22;6416;52.182;7.650;2023-11-21T05:59:37;11.60;97.50
12704;DHT22;6416;52.182;7.650;2023-11-21T06:02:02;11.60;97.50
12704;DHT22;6416;52.182;7.650;2023-11-21T06:04:28;11.60;97.50
12704;DHT22;6416;52.182;7.650;2023-11-21T06:06:53;11.60;97.60
12704;DHT22;6416;52.182;7.650;2023-11-21T06:09:19;11.60;97.60
12704;DHT22;6416;52.182;7.650;2023-11-21T06:11:44;11.70;97.70
12704;DHT22;6416;52.182;7.650;2023-11-21T06:14:10;11.60;97.60
12704;DHT22;6416;52.182;7.650;2023-11-21T06:16:38;11.70;97.70
12704;DHT22;6416;52.182;7.650;2023-11-21T06:19:03;11.70;97.60
12704;DHT22;6416;52.182;7.650;2023-11-21T06:21:29;11.70;97.60
12704;DHT22;6416;52.182;7.650;2023-11-21T06:23:54;11.70;97.60
12704;DHT22;6416;52.182;7.650;2023-11-21T06:26:20;11.70;97.60
12704;DHT22;6416;52.182;7.650;2023-11-21T06:28:45;11.70;97.60
12704;DHT22;6416;52.182;7.650;2023-11-21T06:31:11;11.70;97.60
12704;DHT22;6416;52.182;7.650;2023-11-21T06:33:36;11.70;97.60
12704;DHT22;6416;52.182;7.650;2023-11-21T06:36:02;11.70;97.60
12704;DHT22;6416;52.182;7.650;2023-11-21T06:38:27;11.70;97.60
12704;DHT22;6416;52.182;7.650;2023-11-21T06:40:53;11.80;97.60
12704;DHT22;6416;52.182;7.650;2023-11-21T06:43:18;11.70;97.60
12704;DHT22;6416;52.182;7.650;2023-11-21T06:45:43;11.70;97.60
12704;DHT22;6416;52.182;7.650;2023-11-21T06:48:09;11.70;97.70
12704;DHT22;6416;52.182;7.650;2023-11-21T06:50:34;11.80;97.80
12704;DHT22;6416;52.182;7.650;2023-11-21T06:53:00;11.80;97.90
12704;DHT22;6416;52.182;7.650;2023-11-21T06:55:25;11.80;98.00
12704;DHT22;6416;52.182;7.650;2023-11-21T06:57:51;11.80;98.00
12704;DHT22;6416;52.182;7.650;2023-11-21T07:00:17;11.80;98.00
12704;DHT22;6416;52.182;7.650;2023-11-21T07:02:43;11.80;97.90
12704;DHT22;6416;52.182;7.650;2023-11-21T07:05:08;11.80;97.90
12704;DHT22;6416;52.182;7.650;2023-11-21T07:07:34;11.90;97.90
12704;DHT22;6416;52.182;7.650;2023-11-21T07:09:59;11.80;97.80
12704;DHT22;6416;52.182;7.650;2023-11-21T07:12:25;11.90;97.80
12704;DHT22;6416;52.182;7.650;2023-11-21T07:14:50;11.90;97.80
12704;DHT22;6416;52.182;7.650;2023-11-21T07:17:16;11.90;97.80
12704;DHT22;6416;52.182;7.650;2023-11-21T07:19:41;11.90;97.80
12704;DHT22;6416;52.182;7.650;2023-11-21T07:22:07;11.90;97.80
12704;DHT22;6416;52.182;7.650;2023-11-21T07:24:32;11.90;97.90
12704;DHT22;6416;52.182;7.650;2023-11-21T07:26:58;11.90;97.90
12704;DHT22;6416;52.182;7.650;2023-11-21T07:29:24;11.90;97.90
12704;DHT22;6416;52.182;7.650;2023-11-21T07:31:49;11.90;97.90
12704;DHT22;6416;52.182;7.650;2023-11-21T07:34:15;12.00;98.00
12704;DHT22;6416;52.182;7.650;2023-11-21T07:36:40;12.00;98.10
12704;DHT22;6416;52.182;7.650;2023-11-21T07:39:06;12.00;98.10
12704;DHT22;6416;52.182;7.650;2023-11-21T07:41:31;12.00;98.10
12704;DHT22;6416;52.182;7.650;2023-11-21T07:43:56;12.00;98.10
12704;DHT22;6416;52.182;7.650;2023-11-21T07:46:22;12.00;98.10
12704;DHT22;6416;52.182;7.650;2023-11-21T07:48:47;12.00;98.10
12704;DHT22;6416;52.182;7.650;2023-11-21T07:51:13;12.10;98.10
12704;DHT22;6416;52.182;7.650;2023-11-21T07:53:38;12.10;98.10
12704;DHT22;6416;52.182;7.650;2023-11-21T07:56:05;12.10;98.00
12704;DHT22;6416;52.182;7.650;2023-11-21T07:58:31;12.10;98.00
12704;DHT22;6416;52.182;7.650;2023-11-21T08:00:57;12.10;97.90
12704;DHT22;6416;52.182;7.650;2023-11-21T08:03:22;12.10;98.20
12704;DHT22;6416;52.182;7.650;2023-11-21T08:05:48;12.10;98.00
12704;DHT22;6416;52.182;7.650;2023-11-21T08:08:13;12.10;98.00
12704;DHT22;6416;52.182;7.650;2023-11-21T08:10:39;12.20;98.20
12704;DHT22;6416;52.182;7.650;2023-11-21T08:13:05;12.20;98.20
12704;DHT22;6416;52.182;7.650;2023-11-21T08:15:30;12.20;98.40
12704;DHT22;6416;52.182;7.650;2023-11-21T08:17:56;12.20;98.50
12704;DHT22;6416;52.182;7.650;2023-11-21T08:20:21;12.20;98.50
12704;DHT22;6416;52.182;7.650;2023-11-21T08:22:47;12.30;98.50
12704;DHT22;6416;52.182;7.650;2023-11-21T08:25:12;12.30;98.40
12704;DHT22;6416;52.182;7.650;2023-11-21T08:27:38;12.30;98.30
12704;DHT22;6416;52.182;7.650;2023-11-21T08:30:04;12.30;98.20
12704;DHT22;6416;52.182;7.650;2023-11-21T08:32:30;12.30;98.20
12704;DHT22;6416;52.182;7.650;2023-11-21T08:34:55;12.30;98.10
12704;DHT22;6416;52.182;7.650;2023-11-21T08:37:21;12.30;98.00
12704;DHT22;6416;52.182;7.650;2023-11-21T08:39:47;12.30;98.00
12704;DHT22;6416;52.182;7.650;2023-11-21T08:42:13;12.30;97.90
12704;DHT22;6416;52.182;7.650;2023-11-21T08:44:39;12.40;98.00
12704;DHT22;6416;52.182;7.650;2023-11-21T08:47:04;12.40;98.00
12704;DHT22;6416;52.182;7.650;2023-11-21T08:49:30;12.40;98.00
12704;DHT22;6416;52.182;7.650;2023-11-21T08:51:55;12.40;98.10
12704;DHT22;6416;52.182;7.650;2023-11-21T08:54:21;12.40;98.10
12704;DHT22;6416;52.182;7.650;2023-11-21T08:56:47;12.40;98.10
12704;DHT22;6416;52.182;7.650;2023-11-21T08:59:13;12.40;98.10
12704;DHT22;6416;52.182;7.650;2023-11-21T09:01:38;12.40;98.20
12704;DHT22;6416;52.182;7.650;2023-11-21T09:04:04;12.40;98.20
12704;DHT22;6416;52.182;7.650;2023-11-21T09:06:30;12.40;98.40
12704;DHT22;6416;52.182;7.650;2023-11-21T09:08:55;12.50;98.50
12704;DHT22;6416;52.182;7.650;2023-11-21T09:11:20;12.50;98.60
12704;DHT22;6416;52.182;7.650;2023-11-21T09:13:46;12.50;98.60
12704;DHT22;6416;52.182;7.650;2023-11-21T09:16:11;12.60;98.60
12704;DHT22;6416;52.182;7.650;2023-11-21T09:18:37;12.60;98.50
12704;DHT22;6416;52.182;7.650;2023-11-21T09:21:02;12.60;98.40
12704;DHT22;6416;52.182;7.650;2023-11-21T09:23:28;12.60;98.40
12704;DHT22;6416;52.182;7.650;2023-11-21T09:25:53;12.60;98.40
12704;DHT22;6416;52.182;7.650;2023-11-21T09:28:19;12.60;98.40
12704;DHT22;6416;52.182;7.650;2023-11-21T09:30:44;12.60;98.30
12704;DHT22;6416;52.182;7.650;2023-11-21T09:33:10;12.70;98.30
12704;DHT22;6416;52.182;7.650;2023-11-21T09:35:35;12.70;98.30
12704;DHT22;6416;52.182;7.650;2023-11-21T09:38:01;12.70;98.30
12704;DHT22;6416;52.182;7.650;2023-11-21T09:40:26;12.70;98.30
12704;DHT22;6416;52.182;7.650;2023-11-21T09:42:55;12.70;98.30
12704;DHT22;6416;52.182;7.650;2023-11-21T09:45:28;12.70;98.30
12704;DHT22;6416;52.182;7.650;2023-11-21T09:47:57;12.70;98.10
12704;DHT22;6416;52.182;7.650;2023-11-21T09:50:23;12.70;98.40
12704;DHT22;6416;52.182;7.650;2023-11-21T09:53:16;12.80;98.60
12704;DHT22;6416;52.182;7.650;2023-11-21T09:55:44;12.80;98.20
12704;DHT22;6416;52.182;7.650;2023-11-21T09:58:10;12.80;98.80
12704;DHT22;6416;52.182;7.650;2023-11-21T10:00:36;12.80;98.90
12704;DHT22;6416;52.182;7.650;2023-11-21T10:03:01;12.80;98.90
12704;DHT22;6416;52.182;7.650;2023-11-21T10:05:27;12.90;98.90
12704;DHT22;6416;52.182;7.650;2023-11-21T10:07:53;12.90;98.90
12704;DHT22;6416;52.182;7.650;2023-11-21T10:10:22;12.90;98.80
12704;DHT22;6416;52.182;7.650;2023-11-21T10:12:51;13.00;98.90
12704;DHT22;6416;52.182;7.650;2023-11-21T10:15:22;13.00;98.50
12704;DHT22;6416;52.182;7.650;2023-11-21T10:17:49;13.00;98.30
12704;DHT22;6416;52.182;7.650;2023-11-21T10:20:16;13.00;98.30
12704;DHT22;6416;52.182;7.650;2023-11-21T10:22:42;13.00;98.20
12704;DHT22;6416;52.182;7.650;2023-11-21T10:25:09;13.00;98.30
12704;DHT22;6416;52.182;7.650;2023-11-21T10:27:35;13.00;98.50
12704;DHT22;6416;52.182;7.650;2023-11-21T10:30:02;13.00;98.60
12704;DHT22;6416;52.182;7.650;2023-11-21T10:32:29;13.10;98.80
12704;DHT22;6416;52.182;7.650;2023-11-21T10:34:57;13.10;98.80
12704;DHT22;6416;52.182;7.650;2023-11-21T10:37:22;13.10;98.70
12704;DHT22;6416;52.182;7.650;2023-11-21T10:39:48;13.10;98.70
12704;DHT22;6416;52.182;7.650;2023-11-21T10:42:13;13.20;98.50
12704;DHT22;6416;52.182;7.650;2023-11-21T10:44:41;13.20;98.30
12704;DHT22;6416;52.182;7.650;2023-11-21T10:47:08;13.20;98.10
12704;DHT22;6416;52.182;7.650;2023-11-21T10:49:34;13.20;98.10
12704;DHT22;6416;52.182;7.650;2023-11-21T10:52:02;13.10;98.10
12704;DHT22;6416;52.182;7.650;2023-11-21T10:54:27;13.10;98.00
12704;DHT22;6416;52.182;7.650;2023-11-21T10:57:00;13.10;98.00
12704;DHT22;6416;52.182;7.650;2023-11-21T10:59:29;13.10;97.60
12704;DHT22;6416;52.182;7.650;2023-11-21T11:01:57;13.10;97.70
12704;DHT22;6416;52.182;7.650;2023-11-21T11:04:25;13.10;97.70
12704;DHT22;6416;52.182;7.650;2023-11-21T11:06:55;13.10;97.80
12704;DHT22;6416;52.182;7.650;2023-11-21T11:09:22;13.10;97.80
12704;DHT22;6416;52.182;7.650;2023-11-21T11:11:47;13.10;98.00
12704;DHT22;6416;52.182;7.650;2023-11-21T11:14:14;13.10;98.00
12704;DHT22;6416;52.182;7.650;2023-11-21T11:16:40;13.10;98.00
12704;DHT22;6416;52.182;7.650;2023-11-21T11:19:07;13.10;97.90
12704;DHT22;6416;52.182;7.650;2023-11-21T11:34:56;13.10;97.70
12704;DHT22;6416;52.182;7.650;2023-11-21T11:37:25;13.20;97.30
12704;DHT22;6416;52.182;7.650;2023-11-21T11:39:51;13.20;97.50
12704;DHT22;6416;52.182;7.650;2023-11-21T11:42:17;13.20;97.40
12704;DHT22;6416;52.182;7.650;2023-11-21T11:47:13;13.20;97.00
12704;DHT22;6416;52.182;7.650;2023-11-21T11:52:42;13.10;96.30
12704;DHT22;6416;52.182;7.650;2023-11-21T11:55:10;13.10;96.50
12704;DHT22;6416;52.182;7.650;2023-11-21T11:57:37;13.10;97.10
12704;DHT22;6416;52.182;7.650;2023-11-21T12:00:12;13.10;97.10
12704;DHT22;6416;52.182;7.650;2023-11-21T12:02:39;13.10;96.40
12704;DHT22;6416;52.182;7.650;2023-11-21T12:05:23;13.10;97.10
12704;DHT22;6416;52.182;7.650;2023-11-21T12:10:21;13.10;97.10
12704;DHT22;6416;52.182;7.650;2023-11-21T12:12:49;13.10;97.00
12704;DHT22;6416;52.182;7.650;2023-11-21T12:15:15;13.10;97.00
12704;DHT22;6416;52.182;7.650;2023-11-21T12:17:44;13.10;97.00
12704;DHT22;6416;52.182;7.650;2023-11-21T12:20:11;13.10;96.70
12704;DHT22;6416;52.182;7.650;2023-11-21T12:22:36;13.10;97.00
12704;DHT22;6416;52.182;7.650;2023-11-21T12:25:02;13.10;97.00
12704;DHT22;6416;52.182;7.650;2023-11-21T12:27:28;13.20;97.10
12704;DHT22;6416;52.182;7.650;2023-11-21T12:29:53;13.20;97.10
12704;DHT22;6416;52.182;7.650;2023-11-21T12:32:19;13.20;97.00
12704;DHT22;6416;52.182;7.650;2023-11-21T12:34:44;13.20;96.80
12704;DHT22;6416;52.182;7.650;2023-11-21T12:37:10;13.20;96.70
12704;DHT22;6416;52.182;7.650;2023-11-21T12:39:35;13.20;96.60
12704;DHT22;6416;52.182;7.650;2023-11-21T12:42:01;13.20;96.40
12704;DHT22;6416;52.182;7.650;2023-11-21T12:44:27;13.20;96.20
12704;DHT22;6416;52.182;7.650;2023-11-21T12:46:52;13.10;96.10
12704;DHT22;6416;52.182;7.650;2023-11-21T12:49:18;13.10;96.00
12704;DHT22;6416;52.182;7.650;2023-11-21T12:51:47;13.10;96.00
12704;DHT22;6416;52.182;7.650;2023-11-21T12:54:13;13.10;95.50
12704;DHT22;6416;52.182;7.650;2023-11-21T12:56:39;13.00;95.60
12704;DHT22;6416;52.182;7.650;2023-11-21T12:59:04;13.00;95.50
12704;DHT22;6416;52.182;7.650;2023-11-21T13:01:30;13.00;95.50
12704;DHT22;6416;52.182;7.650;2023-11-21T13:04:00;12.90;95.60
12704;DHT22;6416;52.182;7.650;2023-11-21T13:06:25;12.90;95.60
12704;DHT22;6416;52.182;7.650;2023-11-21T13:08:51;12.90;95.70
12704;DHT22;6416;52.182;7.650;2023-11-21T13:11:17;12.90;95.90
12704;DHT22;6416;52.182;7.650;2023-11-21T13:13:43;12.90;95.90
12704;DHT22;6416;52.182;7.650;2023-11-21T13:16:09;12.90;96.00
12704;DHT22;6416;52.182;7.650;2023-11-21T13:18:34;12.90;96.10
12704;DHT22;6416;52.182;7.650;2023-11-21T13:21:02;13.00;96.10
12704;DHT22;6416;52.182;7.650;2023-11-21T13:23:28;13.00;95.90
12704;DHT22;6416;52.182;7.650;2023-11-21T13:25:54;13.00;96.00
12704;DHT22;6416;52.182;7.650;2023-11-21T13:28:20;13.00;95.60
12704;DHT22;6416;52.182;7.650;2023-11-21T13:30:45;13.00;95.40
12704;DHT22;6416;52.182;7.650;2023-11-21T13:33:11;13.00;95.20
12704;DHT22;6416;52.182;7.650;2023-11-21T13:35:37;13.00;94.90
12704;DHT22;6416;52.182;7.650;2023-11-21T13:38:17;13.00;94.70
12704;DHT22;6416;52.182;7.650;2023-11-21T13:40:47;12.90;93.80
12704;DHT22;6416;52.182;7.650;2023-11-21T13:43:13;12.90;94.10
12704;DHT22;6416;52.182;7.650;2023-11-21T13:45:40;12.90;94.70
12704;DHT22;6416;52.182;7.650;2023-11-21T13:48:06;12.80;94.40
12704;DHT22;6416;52.182;7.650;2023-11-21T13:50:32;12.80;94.40
12704;DHT22;6416;52.182;7.650;2023-11-21T13:52:58;12.80;94.40
12704;DHT22;6416;52.182;7.650;2023-11-21T13:55:24;12.80;94.20
12704;DHT22;6416;52.182;7.650;2023-11-21T13:57:49;12.70;94.10
12704;DHT22;6416;52.182;7.650;2023-11-21T14:00:18;12.70;94.00
12704;DHT22;6416;52.182;7.650;2023-11-21T14:02:44;12.70;93.70
12704;DHT22;6416;52.182;7.650;2023-11-21T14:05:09;12.70;94.00
12704;DHT22;6416;52.182;7.650;2023-11-21T14:07:35;12.70;94.10
12704;DHT22;6416;52.182;7.650;2023-11-21T14:10:00;12.70;94.00
12704;DHT22;6416;52.182;7.650;2023-11-21T14:12:29;12.70;93.90
12704;DHT22;6416;52.182;7.650;2023-11-21T14:14:54;12.60;93.50
12704;DHT22;6416;52.182;7.650;2023-11-21T14:17:20;12.60;93.70
12704;DHT22;6416;52.182;7.650;2023-11-21T14:19:45;12.60;93.60
12704;DHT22;6416;52.182;7.650;2023-11-21T14:22:11;12.60;93.60
12704;DHT22;6416;52.182;7.650;2023-11-21T14:24:37;12.60;93.50
12704;DHT22;6416;52.182;7.650;2023-11-21T14:27:02;12.50;93.40
12704;DHT22;6416;52.182;7.650;2023-11-21T14:29:28;12.50;93.30
12704;DHT22;6416;52.182;7.650;2023-11-21T14:31:53;12.50;93.40
12704;DHT22;6416;52.182;7.650;2023-11-21T14:34:19;12.50;93.50
12704;DHT22;6416;52.182;7.650;2023-11-21T14:36:44;12.50;93.50
12704;DHT22;6416;52.182;7.650;2023-11-21T14:39:10;12.50;93.50
12704;DHT22;6416;52.182;7.650;2023-11-21T14:41:35;12.40;93.40
12704;DHT22;6416;52.182;7.650;2023-11-21T14:44:01;12.40;93.40
12704;DHT22;6416;52.182;7.650;2023-11-21T14:46:27;12.40;93.50
12704;DHT22;6416;52.182;7.650;2023-11-21T14:48:52;12.40;93.50
12704;DHT22;6416;52.182;7.650;2023-11-21T14:51:18;12.40;93.40
12704;DHT22;6416;52.182;7.650;2023-11-21T14:53:43;12.30;93.30
12704;DHT22;6416;52.182;7.650;2023-11-21T14:56:11;12.30;93.20
12704;DHT22;6416;52.182;7.650;2023-11-21T14:58:37;12.30;92.90
12704;DHT22;6416;52.182;7.650;2023-11-21T15:01:02;12.30;93.30
12704;DHT22;6416;52.182;7.650;2023-11-21T15:03:29;12.20;93.20
12704;DHT22;6416;52.182;7.650;2023-11-21T15:05:54;12.20;93.20
12704;DHT22;6416;52.182;7.650;2023-11-21T15:08:20;12.20;93.30
12704;DHT22;6416;52.182;7.650;2023-11-21T15:10:45;12.20;93.20
12704;DHT22;6416;52.182;7.650;2023-11-21T15:13:12;12.20;93.20
12704;DHT22;6416;52.182;7.650;2023-11-21T15:15:37;12.10;93.10
12704;DHT22;6416;52.182;7.650;2023-11-21T15:18:03;12.10;93.10
12704;DHT22;6416;52.182;7.650;2023-11-21T15:20:28;12.00;93.00
12704;DHT22;6416;52.182;7.650;2023-11-21T15:22:54;12.10;93.00
12704;DHT22;6416;52.182;7.650;2023-11-21T15:25:19;12.00;92.90
12704;DHT22;6416;52.182;7.650;2023-11-21T15:27:45;12.00;92.90
12704;DHT22;6416;52.182;7.650;2023-11-21T15:30:10;12.00;92.90
12704;DHT22;6416;52.182;7.650;2023-11-21T15:32:36;12.00;92.90
12704;DHT22;6416;52.182;7.650;2023-11-21T15:35:01;11.90;92.80
12704;DHT22;6416;52.182;7.650;2023-11-21T15:37:30;11.90;92.70
12704;DHT22;6416;52.182;7.650;2023-11-21T15:39:55;11.90;92.50
12704;DHT22;6416;52.182;7.650;2023-11-21T15:42:21;11.80;92.70
12704;DHT22;6416;52.182;7.650;2023-11-21T15:44:46;11.80;92.80
12704;DHT22;6416;52.182;7.650;2023-11-21T15:47:11;11.80;92.80
12704;DHT22;6416;52.182;7.650;2023-11-21T15:49:37;11.80;92.90
12704;DHT22;6416;52.182;7.650;2023-11-21T15:52:06;11.70;92.80
12704;DHT22;6416;52.182;7.650;2023-11-21T15:54:31;11.70;92.90
12704;DHT22;6416;52.182;7.650;2023-11-21T15:56:57;11.70;92.90
12704;DHT22;6416;52.182;7.650;2023-11-21T15:59:23;11.70;93.20